Time;durP1;ratioP1;P1;durP2;ratioP2;P2;SDS_P1;SDS_P2;PMS_P1;PMS_P2;Temp;Humidity;BMP_temperature;BMP_pressure;BME280_temperature;BME280_humidity;BME280_pressure;Samples;Min_cycle;Max_cycle;Signal;HPM_P1;HPM_P2
2020/12/19 00:00:20;;;;;;;7.13;5.47;;;;;;;8.68;67.95;99911.41;6217532;23;20024;-86
2020/12/19 00:02:46;;;;;;;9.70;6.35;;;;;;;8.67;68.00;99914.13;6190943;23;20027;-86
2020/12/19 00:05:12;;;;;;;9.52;5.95;;;;;;;8.66;67.98;99913.28;6190875;23;20035;-86
2020/12/19 00:07:38;;;;;;;10.90;6.00;;;;;;;8.65;67.90;99903.69;6190483;23;20031;-86
2020/12/19 00:10:05;;;;;;;8.65;6.03;;;;;;;8.65;67.90;99900.22;6191163;23;20036;-86
2020/12/19 00:12:31;;;;;;;8.48;6.03;;;;;;;8.64;68.40;99909.88;6216613;23;20025;-86
2020/12/19 00:14:57;;;;;;;9.52;6.03;;;;;;;8.64;68.28;99904.63;6191029;23;20021;-86
2020/12/19 00:17:23;;;;;;;7.50;5.60;;;;;;;8.64;68.30;99896.75;6216905;23;20028;-86
2020/12/19 00:19:49;;;;;;;10.63;6.35;;;;;;;8.62;68.35;99902.97;6190710;23;20467;-86
2020/12/19 00:22:16;;;;;;;9.13;6.07;;;;;;;8.62;68.25;99893.34;6190915;23;20096;-87
2020/12/19 00:24:42;;;;;;;7.85;5.88;;;;;;;8.63;68.32;99891.56;6216964;23;20459;-87
2020/12/19 00:27:09;;;;;;;9.93;6.47;;;;;;;8.62;68.44;99890.72;6217220;23;20027;-86
2020/12/19 00:29:36;;;;;;;9.07;5.68;;;;;;;8.63;68.61;99884.53;6190746;23;20332;-87
2020/12/19 00:32:02;;;;;;;7.82;5.72;;;;;;;8.64;68.78;99878.38;6216952;23;20025;-86
2020/12/19 00:34:29;;;;;;;8.90;5.55;;;;;;;8.64;68.54;99878.38;6217128;23;20024;-86
2020/12/19 00:36:55;;;;;;;10.68;6.10;;;;;;;8.65;68.45;99874.84;6190428;23;20025;-86
2020/12/19 00:39:22;;;;;;;11.35;6.47;;;;;;;8.65;68.70;99873.97;6190963;23;20028;-86
2020/12/19 00:41:48;;;;;;;7.63;5.88;;;;;;;8.65;68.62;99880.09;6217213;23;20329;-86
2020/12/19 00:44:14;;;;;;;9.23;6.13;;;;;;;8.65;68.65;99869.59;6190498;23;20027;-86
2020/12/19 00:46:40;;;;;;;8.55;5.88;;;;;;;8.66;68.50;99867.78;6190292;23;20028;-86
2020/12/19 00:49:06;;;;;;;8.70;5.88;;;;;;;8.64;68.60;99869.66;6216715;23;20032;-86
2020/12/19 00:51:33;;;;;;;9.27;6.28;;;;;;;8.66;69.03;99865.16;6190743;23;20020;-86
2020/12/19 00:53:59;;;;;;;10.70;6.45;;;;;;;8.65;68.90;99871.34;6216363;23;20032;-87
2020/12/19 00:56:27;;;;;;;8.95;6.32;;;;;;;8.64;68.62;99859.16;6190519;23;20020;-86
2020/12/19 00:58:54;;;;;;;8.85;5.72;;;;;;;8.65;68.94;99863.47;6190772;23;20355;-86
2020/12/19 01:01:23;;;;;;;9.48;6.60;;;;;;;8.65;68.79;99855.59;6216909;23;20052;-86
2020/12/19 01:03:49;;;;;;;10.57;6.60;;;;;;;8.65;68.88;99859.09;6190371;23;20024;-86
2020/12/19 01:06:19;;;;;;;8.25;6.30;;;;;;;8.66;68.67;99857.28;6216645;23;20028;-86
2020/12/19 01:08:48;;;;;;;8.07;6.10;;;;;;;8.64;68.40;99860.03;6190333;23;20460;-86
2020/12/19 01:11:31;;;;;;;8.80;6.10;;;;;;;8.65;68.87;99850.34;6216903;23;20020;-86
2020/12/19 01:13:57;;;;;;;9.07;6.38;;;;;;;8.64;68.80;99843.41;6190292;23;20024;-86
2020/12/19 01:16:26;;;;;;;9.98;6.28;;;;;;;8.63;68.55;99845.19;6216485;23;20043;-86
2020/12/19 01:18:54;;;;;;;9.50;6.57;;;;;;;8.61;68.79;99839.16;6216772;23;20031;-86
2020/12/19 01:21:22;;;;;;;8.77;6.63;;;;;;;8.62;68.97;99842.63;6190480;23;20028;-87
2020/12/19 01:23:49;;;;;;;8.80;6.28;;;;;;;8.63;68.80;99836.47;6190139;23;20032;-86
2020/12/19 01:26:16;;;;;;;10.13;5.65;;;;;;;8.62;68.86;99846.09;6190334;23;20340;-86
2020/12/19 01:28:42;;;;;;;8.18;5.97;;;;;;;8.63;68.74;99847.81;6216695;23;20021;-85
2020/12/19 01:31:10;;;;;;;10.15;6.95;;;;;;;8.62;68.82;99840.84;6216573;23;20024;-86
2020/12/19 01:33:37;;;;;;;7.85;6.00;;;;;;;8.63;68.74;99836.47;6216353;23;20079;-86
2020/12/19 01:36:08;;;;;;;8.25;6.28;;;;;;;8.60;68.80;99838.31;6189997;23;20051;-86
2020/12/19 01:38:34;;;;;;;8.55;5.85;;;;;;;8.61;68.74;99836.53;6190276;23;20028;-86
2020/12/19 01:41:00;;;;;;;9.52;6.50;;;;;;;8.61;69.04;99844.41;6190139;23;20387;-86
2020/12/19 01:43:47;;;;;;;9.43;6.75;;;;;;;8.55;69.18;99840.31;6216324;23;20021;-86
2020/12/19 01:46:41;;;;;;;9.27;6.25;;;;;;;8.55;69.32;99829.81;6189731;23;20456;-86
2020/12/19 01:49:08;;;;;;;9.52;6.15;;;;;;;8.58;68.90;99818.31;6216257;23;20479;-86
2020/12/19 01:51:34;;;;;;;9.07;6.30;;;;;;;8.57;69.08;99830.56;6216527;23;20427;-86
2020/12/19 01:54:01;;;;;;;10.57;6.45;;;;;;;8.58;68.88;99820.94;6216247;23;20351;-86
2020/12/19 01:56:47;;;;;;;10.48;5.65;;;;;;;8.56;69.16;99822.78;6215891;23;20466;-85
2020/12/19 01:59:13;;;;;;;6.68;4.88;;;;;;;8.59;68.95;99812.13;6216428;23;20024;-86
2020/12/19 02:01:51;;;;;;;9.20;5.90;;;;;;;8.56;69.29;99814.94;6216240;23;20083;-86
2020/12/19 02:04:19;;;;;;;8.90;5.90;;;;;;;8.59;69.06;99820.00;6216114;23;20020;-86
2020/12/19 02:06:53;;;;;;;9.10;5.93;;;;;;;8.57;69.00;99814.00;6189422;23;20028;-86
2020/12/19 02:09:22;;;;;;;9.30;6.07;;;;;;;8.58;68.98;99806.06;6190001;23;20339;-86
2020/12/19 02:11:49;;;;;;;11.30;5.78;;;;;;;8.59;68.86;99805.13;6189545;23;20471;-85
2020/12/19 02:14:15;;;;;;;9.75;5.97;;;;;;;8.58;69.24;99800.81;6189787;23;20021;-86
2020/12/19 02:17:01;;;;;;;9.43;6.20;;;;;;;8.55;69.49;99800.94;6189410;23;20027;-86
2020/12/19 02:19:28;;;;;;;7.68;5.72;;;;;;;8.59;69.21;99793.75;6216337;23;20020;-86
2020/12/19 02:21:55;;;;;;;7.85;5.65;;;;;;;8.59;68.93;99807.75;6216166;23;20024;-86
2020/12/19 02:24:22;;;;;;;7.88;5.57;;;;;;;8.59;69.12;99807.75;6215751;23;20107;-85
2020/12/19 02:26:50;;;;;;;8.85;6.40;;;;;;;8.59;69.08;99799.00;6216185;23;20044;-86
2020/12/19 02:29:18;;;;;;;8.50;5.55;;;;;;;8.61;69.29;99794.56;6189560;23;20024;-86
2020/12/19 02:31:45;;;;;;;8.30;5.75;;;;;;;8.62;69.41;99792.75;6216198;23;20036;-86
2020/12/19 02:34:11;;;;;;;8.73;5.90;;;;;;;8.63;69.39;99792.69;6188898;23;20028;-86
2020/12/19 02:36:38;;;;;;;8.93;6.38;;;;;;;8.65;69.38;99790.00;6189676;23;20331;-86
2020/12/19 02:39:05;;;;;;;9.65;5.68;;;;;;;8.66;69.48;99784.69;6215668;23;20074;-86
2020/12/19 02:41:43;;;;;;;8.82;5.70;;;;;;;8.65;70.04;99774.25;6216078;23;20020;-87
2020/12/19 02:44:12;;;;;;;8.70;5.72;;;;;;;8.67;69.35;99778.50;6189029;23;20033;-87
2020/12/19 02:46:38;;;;;;;9.55;5.78;;;;;;;8.70;69.58;99773.13;6215912;23;20016;-86
2020/12/19 02:49:05;;;;;;;9.10;5.50;;;;;;;8.71;69.52;99774.81;6216108;23;20031;-86
2020/12/19 02:51:31;;;;;;;8.75;5.50;;;;;;;8.75;69.68;99779.91;6189322;23;20378;-86
2020/12/19 02:53:58;;;;;;;8.35;5.43;;;;;;;8.77;69.56;99783.31;6189061;23;20025;-86
2020/12/19 02:56:24;;;;;;;7.80;5.53;;;;;;;8.78;69.74;99770.09;6215830;23;20020;-86
2020/12/19 02:58:50;;;;;;;7.93;5.68;;;;;;;8.80;69.85;99770.03;6189170;23;20025;-86
2020/12/19 03:01:16;;;;;;;7.13;5.10;;;;;;;8.82;69.62;99763.78;6189709;23;20027;-86
2020/12/19 03:03:43;;;;;;;7.75;5.60;;;;;;;8.83;69.68;99762.84;6188496;23;20375;-86
2020/12/19 03:06:26;;;;;;;8.02;4.03;;;;;;;8.85;69.32;99763.63;6214425;23;20074;-86
2020/12/19 03:08:52;;;;;;;7.95;6.13;;;;;;;8.88;69.66;99754.75;6189167;23;20478;-86
2020/12/19 03:11:19;;;;;;;7.28;5.38;;;;;;;8.90;69.60;99757.31;6189634;23;20104;-86
2020/12/19 03:13:45;;;;;;;7.15;5.50;;;;;;;8.89;69.30;99759.06;6189332;23;20020;-86
2020/12/19 03:16:11;;;;;;;9.75;5.82;;;;;;;8.91;69.54;99749.38;6189175;23;20071;-86
2020/12/19 03:18:37;;;;;;;9.05;5.80;;;;;;;8.91;69.35;99749.38;6215590;23;20025;-86
2020/12/19 03:21:04;;;;;;;10.15;6.10;;;;;;;8.91;69.25;99753.75;6189590;23;20119;-86
2020/12/19 03:23:30;;;;;;;6.50;5.05;;;;;;;8.91;69.37;99753.75;6188856;23;20025;-86
2020/12/19 03:25:56;;;;;;;10.25;5.05;;;;;;;8.91;69.05;99749.38;6215469;23;20017;-86
2020/12/19 03:28:22;;;;;;;8.88;5.45;;;;;;;8.90;69.14;99742.38;6189514;23;20024;-86
2020/12/19 03:30:48;;;;;;;8.57;5.07;;;;;;;8.90;69.32;99745.00;6215933;23;20020;-85
2020/12/19 03:33:14;;;;;;;7.57;5.60;;;;;;;8.89;69.35;99745.94;6189351;23;20035;-85
2020/12/19 03:35:40;;;;;;;8.20;5.70;;;;;;;8.89;69.39;99740.69;6189030;23;20017;-85
2020/12/19 03:38:07;;;;;;;8.00;5.70;;;;;;;8.89;69.27;99747.75;6189073;23;20395;-86
2020/12/19 03:40:34;;;;;;;9.05;5.60;;;;;;;8.88;69.20;99739.00;6215776;23;20028;-85
2020/12/19 03:43:01;;;;;;;7.85;5.35;;;;;;;8.88;69.30;99741.63;6215191;23;20459;-85
2020/12/19 03:45:27;;;;;;;7.70;5.40;;;;;;;8.87;69.08;99737.31;6189911;23;20025;-85
2020/12/19 03:47:53;;;;;;;11.13;5.15;;;;;;;8.85;69.12;99732.13;6217246;23;20024;-86
2020/12/19 03:50:19;;;;;;;9.23;6.40;;;;;;;8.85;69.12;99736.53;6191345;23;20047;-86
2020/12/19 03:52:45;;;;;;;10.27;5.93;;;;;;;8.83;69.19;99739.22;6191042;23;20028;-86
2020/12/19 03:55:11;;;;;;;8.85;6.25;;;;;;;8.82;69.36;99728.81;6217579;23;20027;-86
2020/12/19 03:57:38;;;;;;;10.55;7.00;;;;;;;8.81;69.32;99727.09;6190805;23;20024;-86
2020/12/19 04:00:06;;;;;;;9.02;6.32;;;;;;;8.78;69.47;99722.88;6217203;23;20031;-86
2020/12/19 04:02:32;;;;;;;10.27;6.40;;;;;;;8.78;69.46;99727.28;6190601;23;20033;-86
2020/12/19 04:04:58;;;;;;;8.93;6.05;;;;;;;8.75;69.44;99727.44;6191267;23;20021;-86
2020/12/19 04:07:24;;;;;;;10.43;6.22;;;;;;;8.75;69.54;99725.66;6188891;23;20025;-84
2020/12/19 04:09:50;;;;;;;10.27;6.40;;;;;;;8.73;69.58;99719.63;6218870;23;20020;-84
2020/12/19 04:12:17;;;;;;;10.30;6.68;;;;;;;8.73;69.34;99709.13;6193348;23;20078;-85
2020/12/19 04:14:43;;;;;;;10.25;6.40;;;;;;;8.71;69.42;99717.06;6220705;23;20029;-86
2020/12/19 04:17:12;;;;;;;9.48;6.93;;;;;;;8.71;69.58;99711.81;6191483;23;20023;-83
2020/12/19 04:19:40;;;;;;;9.38;6.43;;;;;;;8.70;69.38;99715.38;6192534;23;20028;-84
2020/12/19 04:22:07;;;;;;;11.45;7.10;;;;;;;8.71;69.49;99706.56;6192797;23;20027;-84
2020/12/19 04:24:33;;;;;;;9.63;7.15;;;;;;;8.71;69.60;99705.75;6194945;23;20024;-85
2020/12/19 04:27:00;;;;;;;11.60;7.55;;;;;;;8.70;69.59;99704.88;6222254;23;20023;-84
2020/12/19 04:29:27;;;;;;;9.55;6.63;;;;;;;8.69;69.44;99710.19;6220199;23;20028;-85
2020/12/19 04:31:54;;;;;;;11.27;8.05;;;;;;;8.68;69.46;99704.09;6220983;23;20016;-84
2020/12/19 04:34:21;;;;;;;9.18;6.82;;;;;;;8.67;69.70;99707.66;6192573;23;20071;-85
2020/12/19 04:36:47;;;;;;;10.13;6.85;;;;;;;8.66;69.73;99702.47;6192693;23;20023;-84
2020/12/19 04:39:13;;;;;;;10.85;7.75;;;;;;;8.65;69.44;99706.03;6194928;23;20043;-83
2020/12/19 04:41:39;;;;;;;12.73;7.40;;;;;;;8.63;69.46;99694.78;6193128;23;20025;-84
2020/12/19 04:44:05;;;;;;;10.88;7.55;;;;;;;8.62;69.58;99693.06;6220084;23;20074;-84
2020/12/19 04:46:32;;;;;;;10.27;7.13;;;;;;;8.61;69.38;99694.84;6219300;23;20024;-83
2020/12/19 04:49:01;;;;;;;11.98;7.65;;;;;;;8.60;69.21;99696.63;6219614;23;20024;-85
2020/12/19 04:51:28;;;;;;;11.48;7.78;;;;;;;8.58;69.37;99697.63;6221084;23;20025;-84
2020/12/19 04:53:55;;;;;;;11.45;7.75;;;;;;;8.57;69.80;99693.31;6195099;23;20382;-84
2020/12/19 04:56:23;;;;;;;11.27;7.90;;;;;;;8.56;69.47;99699.50;6193772;23;20090;-84
2020/12/19 04:58:55;;;;;;;12.93;8.45;;;;;;;8.54;69.78;99698.69;6194254;23;20104;-84
2020/12/19 05:01:22;;;;;;;12.77;8.27;;;;;;;8.53;69.80;99699.63;6193378;23;20029;-84
2020/12/19 05:03:49;;;;;;;12.45;8.60;;;;;;;8.52;69.85;99695.28;6220835;23;20355;-83
2020/12/19 05:06:23;;;;;;;15.02;8.35;;;;;;;8.51;69.73;99683.06;6194821;23;20347;-85
2020/12/19 05:08:56;;;;;;;12.05;8.50;;;;;;;8.48;69.95;99691.94;6167590;23;20021;-84
2020/12/19 05:11:24;;;;;;;13.00;9.00;;;;;;;8.51;69.96;99685.69;6220219;23;20034;-84
2020/12/19 05:13:50;;;;;;;14.32;8.85;;;;;;;8.50;70.21;99677.00;6217802;23;20031;-84
2020/12/19 05:16:18;;;;;;;13.32;8.75;;;;;;;8.49;69.92;99683.16;6194637;23;20017;-84
2020/12/19 05:18:44;;;;;;;12.07;8.57;;;;;;;8.47;69.87;99678.00;6191884;23;20336;-83
2020/12/19 05:21:12;;;;;;;13.68;9.65;;;;;;;8.47;69.84;99691.09;6217512;23;20025;-85
2020/12/19 05:23:40;;;;;;;12.43;8.65;;;;;;;8.46;70.17;99683.31;6191778;23;20024;-83
2020/12/19 05:26:08;;;;;;;13.70;8.68;;;;;;;8.45;70.00;99679.81;6218639;23;20027;-84
2020/12/19 05:28:36;;;;;;;10.90;8.20;;;;;;;8.45;69.77;99674.59;6221645;23;20025;-84
2020/12/19 05:31:03;;;;;;;16.15;9.60;;;;;;;8.45;69.84;99679.81;6220826;23;20490;-83
2020/12/19 05:33:42;;;;;;;12.77;9.20;;;;;;;8.41;70.10;99683.53;6191580;23;20039;-84
2020/12/19 05:36:20;;;;;;;14.00;9.70;;;;;;;8.40;69.94;99673.97;6192868;23;20017;-84
2020/12/19 05:38:47;;;;;;;15.75;9.68;;;;;;;8.42;69.95;99680.00;6192686;23;20024;-84
2020/12/19 05:41:14;;;;;;;14.85;9.15;;;;;;;8.41;69.99;99666.97;6195284;23;20086;-84
2020/12/19 05:43:51;;;;;;;13.43;9.73;;;;;;;8.35;70.16;99663.69;6194495;23;20024;-84
2020/12/19 05:46:32;;;;;;;11.38;8.85;;;;;;;8.35;70.41;99665.47;6220709;23;20340;-84
2020/12/19 05:48:59;;;;;;;12.18;8.82;;;;;;;8.37;69.97;99668.88;6193164;23;20355;-84
2020/12/19 05:51:27;;;;;;;16.23;9.82;;;;;;;8.37;70.16;99676.72;6191736;23;20025;-84
2020/12/19 05:53:53;;;;;;;13.70;9.25;;;;;;;8.34;70.06;99664.63;6193516;23;20339;-84
2020/12/19 05:56:22;;;;;;;14.77;9.93;;;;;;;8.34;69.81;99669.03;6193491;23;20012;-84
2020/12/19 05:58:53;;;;;;;13.18;9.60;;;;;;;8.31;70.10;99667.41;6220292;23;20024;-84
2020/12/19 06:01:21;;;;;;;13.02;9.52;;;;;;;8.32;69.92;99663.00;6195086;23;20021;-84
2020/12/19 06:03:49;;;;;;;13.93;9.60;;;;;;;8.31;70.15;99669.19;6218689;23;20024;-84
2020/12/19 06:06:18;;;;;;;14.88;10.70;;;;;;;8.30;70.53;99662.25;6191143;23;20059;-84
2020/12/19 06:08:48;;;;;;;16.52;10.63;;;;;;;8.28;70.43;99657.06;6194502;23;20021;-83
2020/12/19 06:11:21;;;;;;;15.13;9.80;;;;;;;8.29;70.46;99657.91;6193044;23;20016;-85
2020/12/19 06:13:55;;;;;;;14.52;10.00;;;;;;;8.28;70.42;99656.22;6193710;23;20020;-84
2020/12/19 06:16:25;;;;;;;17.95;10.23;;;;;;;8.29;70.11;99657.91;6221314;23;20016;-84
2020/12/19 06:19:15;;;;;;;15.20;10.82;;;;;;;8.26;70.52;99651.03;6220641;23;20447;-83
2020/12/19 06:21:53;;;;;;;15.43;10.40;;;;;;;8.27;70.40;99647.50;6219448;23;20024;-84
2020/12/19 06:24:41;;;;;;;14.45;9.88;;;;;;;8.25;70.38;99651.97;6192139;23;20020;-84
2020/12/19 06:27:18;;;;;;;16.80;10.18;;;;;;;8.28;70.52;99653.59;6193406;23;20025;-85
2020/12/19 06:29:44;;;;;;;16.55;10.02;;;;;;;8.28;70.18;99641.34;6219617;23;20029;-85
2020/12/19 06:32:21;;;;;;;17.15;10.38;;;;;;;8.25;70.75;99643.22;6218666;23;20024;-85
2020/12/19 06:35:04;;;;;;;14.23;10.43;;;;;;;8.23;70.99;99655.59;6194513;23;20021;-85
2020/12/19 06:37:33;;;;;;;15.82;10.90;;;;;;;8.26;70.32;99645.78;6218448;23;20052;-84
2020/12/19 06:40:18;;;;;;;14.35;10.88;;;;;;;8.22;70.72;99636.38;6196213;23;20021;-83
2020/12/19 06:42:49;;;;;;;16.23;10.43;;;;;;;8.26;70.35;99639.72;6220904;23;20031;-83
2020/12/19 06:45:27;;;;;;;15.48;10.77;;;;;;;8.24;70.94;99638.94;6217671;23;20459;-83
2020/12/19 06:47:55;;;;;;;15.05;10.40;;;;;;;8.26;70.56;99644.97;6218694;23;20025;-84
2020/12/19 06:50:24;;;;;;;15.27;9.95;;;;;;;8.27;70.46;99652.75;6193761;23;20088;-83
2020/12/19 06:52:54;;;;;;;16.35;10.50;;;;;;;8.26;70.57;99647.59;6191529;23;20100;-83
2020/12/19 06:55:22;;;;;;;16.95;10.38;;;;;;;8.28;70.63;99643.97;6220215;23;20032;-84
2020/12/19 06:57:53;;;;;;;14.13;9.93;;;;;;;8.27;70.07;99634.41;6194016;23;20021;-84
2020/12/19 07:00:28;;;;;;;15.57;10.52;;;;;;;8.29;70.47;99642.16;6194800;23;20025;-84
2020/12/19 07:02:56;;;;;;;14.07;9.02;;;;;;;8.29;70.54;99645.66;6195712;23;20525;-84
2020/12/19 07:05:23;;;;;;;15.82;10.57;;;;;;;8.28;70.40;99635.22;6194084;23;20024;-83
2020/12/19 07:07:51;;;;;;;13.77;9.13;;;;;;;8.28;70.42;99635.22;6218435;23;20025;-83
2020/12/19 07:10:36;;;;;;;13.23;9.68;;;;;;;8.23;70.42;99632.84;6220954;23;20063;-83
2020/12/19 07:13:02;;;;;;;14.00;9.18;;;;;;;8.28;70.17;99627.34;6219813;23;20025;-84
2020/12/19 07:15:54;;;;;;;15.95;10.18;;;;;;;8.23;70.69;99632.84;6191237;23;20452;-83
2020/12/19 07:18:34;;;;;;;13.77;9.13;;;;;;;8.23;70.62;99627.59;6197500;23;20020;-83
2020/12/19 07:21:04;;;;;;;14.25;10.07;;;;;;;8.26;70.19;99631.84;6219219;23;20036;-83
2020/12/19 07:23:31;;;;;;;13.68;9.93;;;;;;;8.26;70.16;99629.22;6220735;23;20020;-84
2020/12/19 07:25:58;;;;;;;17.30;9.63;;;;;;;8.26;70.48;99637.09;6196507;23;20075;-83
2020/12/19 07:28:28;;;;;;;16.13;10.30;;;;;;;8.25;70.53;99633.59;6224568;23;20024;-83
2020/12/19 07:30:54;;;;;;;16.13;10.20;;;;;;;8.27;70.33;99631.78;6222528;23;20459;-83
2020/12/19 07:33:20;;;;;;;15.88;10.23;;;;;;;8.26;70.74;99627.44;6192937;23;20028;-85
2020/12/19 07:35:47;;;;;;;16.38;10.40;;;;;;;8.26;70.89;99632.69;6218967;23;20029;-83
2020/12/19 07:38:14;;;;;;;16.42;10.00;;;;;;;8.29;70.68;99634.28;6193174;23;20021;-83
2020/12/19 07:40:41;;;;;;;16.65;10.25;;;;;;;8.29;70.90;99635.16;6219409;23;20024;-83
2020/12/19 07:43:10;;;;;;;19.52;10.57;;;;;;;8.30;71.03;99636.03;6218079;23;20032;-84
2020/12/19 07:45:38;;;;;;;15.07;9.88;;;;;;;8.31;71.08;99635.94;6221908;23;20021;-83
2020/12/19 07:48:05;;;;;;;14.75;10.23;;;;;;;8.34;70.89;99634.94;6193420;23;20025;-84
2020/12/19 07:50:34;;;;;;;18.52;10.45;;;;;;;8.35;70.81;99639.25;6193641;23;20025;-83
2020/12/19 07:53:05;;;;;;;20.15;9.52;;;;;;;8.36;70.62;99640.94;6220423;23;20021;-83
2020/12/19 07:55:32;;;;;;;14.48;9.18;;;;;;;8.39;70.55;99637.31;6193887;23;20021;-83
2020/12/19 07:58:02;;;;;;;14.77;9.90;;;;;;;8.39;70.45;99635.56;6195311;23;20024;-83
2020/12/19 08:00:29;;;;;;;20.75;11.35;;;;;;;8.40;70.48;99649.50;6220612;23;20020;-83
2020/12/19 08:02:55;;;;;;;15.75;9.52;;;;;;;8.39;70.76;99640.81;6192033;23;20021;-82
2020/12/19 08:05:22;;;;;;;15.55;9.90;;;;;;;8.39;70.74;99643.44;6220441;23;20032;-82
2020/12/19 08:07:52;;;;;;;15.18;9.98;;;;;;;8.39;70.55;99646.03;6193495;23;20020;-83
2020/12/19 08:10:19;;;;;;;16.38;10.35;;;;;;;8.41;70.70;99644.19;6221726;23;20028;-83
2020/12/19 08:12:45;;;;;;;15.25;10.23;;;;;;;8.41;70.79;99646.81;6221092;23;20032;-83
2020/12/19 08:15:16;;;;;;;14.57;9.63;;;;;;;8.40;70.86;99639.88;6219488;23;20055;-83
2020/12/19 08:17:56;;;;;;;18.13;10.52;;;;;;;8.40;70.74;99645.13;6219897;23;20028;-83
2020/12/19 08:20:28;;;;;;;13.55;9.90;;;;;;;8.42;70.80;99643.28;6220571;23;20032;-83
2020/12/19 08:23:02;;;;;;;13.98;9.50;;;;;;;8.43;70.88;99634.47;6193799;23;20029;-83
2020/12/19 08:25:33;;;;;;;15.63;9.38;;;;;;;8.46;71.03;99634.31;6218721;23;20398;-83
2020/12/19 08:27:59;;;;;;;14.55;8.48;;;;;;;8.50;70.91;99645.50;6220245;23;20021;-83
2020/12/19 08:30:25;;;;;;;16.17;10.00;;;;;;;8.53;71.27;99647.16;6220841;23;20027;-83
2020/12/19 08:32:59;;;;;;;14.07;9.60;;;;;;;8.56;71.18;99647.00;6194417;23;20347;-83
2020/12/19 08:35:31;;;;;;;13.32;9.27;;;;;;;8.57;71.15;99644.28;6219469;23;20025;-83
2020/12/19 08:38:10;;;;;;;15.27;10.18;;;;;;;8.60;71.44;99640.69;6219643;23;20044;-83
2020/12/19 08:40:50;;;;;;;14.40;9.85;;;;;;;8.64;71.38;99639.59;6221601;23;20032;-84
2020/12/19 08:43:35;;;;;;;14.38;9.30;;;;;;;8.69;71.42;99637.59;6196396;23;20020;-83
2020/12/19 08:46:09;;;;;;;16.45;9.38;;;;;;;8.73;71.45;99640.91;6220144;23;20112;-83
2020/12/19 08:48:37;;;;;;;14.93;9.23;;;;;;;8.80;71.32;99644.06;6219264;23;20463;-83
2020/12/19 08:51:11;;;;;;;14.15;9.88;;;;;;;8.83;71.58;99649.16;6193326;23;20025;-83
2020/12/19 08:53:37;;;;;;;13.25;9.45;;;;;;;8.89;71.53;99651.44;6219846;23;20020;-82
2020/12/19 08:56:14;;;;;;;12.40;9.77;;;;;;;8.91;71.56;99643.50;6194870;23;20383;-83
2020/12/19 08:58:42;;;;;;;14.07;9.55;;;;;;;8.98;71.51;99642.25;6219340;23;20069;-84
2020/12/19 09:01:15;;;;;;;13.15;8.85;;;;;;;9.03;71.29;99647.25;6192309;23;20027;-83
2020/12/19 09:03:43;;;;;;;15.70;10.70;;;;;;;9.08;71.60;99651.34;6219421;23;20021;-83
2020/12/19 09:06:13;;;;;;;14.25;10.40;;;;;;;9.13;71.61;99654.56;6193842;23;20020;-83
2020/12/19 09:08:47;;;;;;;13.25;9.20;;;;;;;9.19;71.12;99655.19;6218499;23;20043;-83
2020/12/19 09:11:25;;;;;;;13.02;9.70;;;;;;;9.22;71.15;99647.13;6191377;23;20024;-83
2020/12/19 09:14:12;;;;;;;16.00;10.65;;;;;;;9.26;71.39;99653.91;6219590;23;20029;-84
2020/12/19 09:16:50;;;;;;;14.90;9.50;;;;;;;9.32;71.21;99663.25;6191594;23;20025;-83
2020/12/19 09:19:18;;;;;;;15.27;9.88;;;;;;;9.37;71.24;99662.09;6192830;23;20044;-84
2020/12/19 09:21:58;;;;;;;13.73;9.27;;;;;;;9.40;71.53;99663.69;6193136;23;20020;-83
2020/12/19 09:24:25;;;;;;;15.48;10.43;;;;;;;9.48;71.33;99660.66;6193810;23;20460;-83
2020/12/19 09:26:51;;;;;;;16.17;11.20;;;;;;;9.51;71.46;99665.75;6219293;23;20021;-84
2020/12/19 09:29:17;;;;;;;13.95;10.13;;;;;;;9.57;71.53;99659.31;6192181;23;20074;-84
2020/12/19 09:31:43;;;;;;;14.52;10.27;;;;;;;9.60;71.30;99653.88;6219482;23;20020;-83
2020/12/19 09:34:10;;;;;;;16.35;10.50;;;;;;;9.63;71.35;99657.19;6192060;23;20025;-84
2020/12/19 09:36:37;;;;;;;15.32;10.18;;;;;;;9.69;71.21;99650.75;6220075;23;20409;-84
2020/12/19 09:39:05;;;;;;;15.13;11.35;;;;;;;9.73;71.42;99656.69;6219056;23;20020;-84
2020/12/19 09:41:32;;;;;;;14.68;10.70;;;;;;;9.78;71.24;99658.13;6218768;23;20031;-85
2020/12/19 09:43:58;;;;;;;14.82;10.27;;;;;;;9.82;71.23;99652.69;6191590;23;20029;-83
2020/12/19 09:46:28;;;;;;;20.15;10.40;;;;;;;9.86;71.40;99655.06;6194241;23;20035;-84
2020/12/19 09:48:58;;;;;;;14.52;9.93;;;;;;;9.89;71.05;99649.66;6191447;23;20095;-83
2020/12/19 09:51:30;;;;;;;16.55;10.60;;;;;;;9.93;71.20;99649.47;6192672;23;20020;-83
2020/12/19 09:53:56;;;;;;;16.38;10.80;;;;;;;9.98;71.20;99650.91;6193480;23;20027;-83
2020/12/19 09:56:22;;;;;;;15.95;10.63;;;;;;;10.02;71.28;99646.34;6217543;23;20390;-84
2020/12/19 09:58:48;;;;;;;16.15;11.10;;;;;;;10.07;71.14;99659.19;6221542;23;20027;-83
2020/12/19 10:01:14;;;;;;;14.90;10.88;;;;;;;10.12;71.48;99644.00;6219412;23;20031;-82
2020/12/19 10:03:40;;;;;;;13.77;9.80;;;;;;;10.16;71.47;99645.53;6223615;23;20025;-83
2020/12/19 10:06:08;;;;;;;19.80;11.82;;;;;;;10.22;71.41;99647.81;6191845;23;20463;-82
2020/12/19 10:08:34;;;;;;;16.30;11.00;;;;;;;10.25;71.29;99642.38;6187734;23;20045;-86
2020/12/19 10:11:00;;;;;;;14.65;10.23;;;;;;;10.30;71.17;99640.34;6189725;23;20021;-87
2020/12/19 10:13:27;;;;;;;14.60;9.95;;;;;;;10.36;71.10;99630.38;6216327;23;20347;-87
2020/12/19 10:15:53;;;;;;;15.15;10.57;;;;;;;10.41;71.00;99623.94;6216283;23;20367;-87
2020/12/19 10:18:19;;;;;;;14.75;9.80;;;;;;;10.47;71.06;99619.25;6189788;23;20029;-86
2020/12/19 10:20:46;;;;;;;16.25;11.00;;;;;;;10.51;70.96;99620.78;6190253;23;20028;-86
2020/12/19 10:23:12;;;;;;;13.52;10.50;;;;;;;10.55;70.86;99622.28;6189689;23;20029;-86
2020/12/19 10:25:38;;;;;;;15.68;10.00;;;;;;;10.59;70.92;99629.06;6189599;23;20024;-86
2020/12/19 10:28:04;;;;;;;15.48;10.70;;;;;;;10.62;70.77;99630.69;6189782;23;20021;-85
2020/12/19 10:30:30;;;;;;;16.35;11.13;;;;;;;10.64;70.78;99629.66;6189887;23;20021;-86
2020/12/19 10:32:56;;;;;;;14.45;10.35;;;;;;;10.69;70.74;99629.34;6189109;23;20023;-86
2020/12/19 10:35:22;;;;;;;17.08;11.13;;;;;;;10.71;70.61;99627.50;6189552;23;20024;-86
2020/12/19 10:37:48;;;;;;;14.80;9.98;;;;;;;10.75;70.64;99617.63;6189966;23;20024;-86
2020/12/19 10:40:14;;;;;;;16.80;11.70;;;;;;;10.78;70.60;99610.41;6189982;23;20028;-87
2020/12/19 10:42:40;;;;;;;16.10;11.20;;;;;;;10.81;70.83;99607.56;6189189;23;20471;-87
2020/12/19 10:45:06;;;;;;;15.48;11.38;;;;;;;10.85;70.57;99599.47;6189717;23;20029;-88
2020/12/19 10:47:32;;;;;;;15.75;10.57;;;;;;;10.89;70.47;99598.34;6215933;23;20024;-87
2020/12/19 10:49:59;;;;;;;18.02;11.27;;;;;;;10.92;70.62;99600.81;6189755;23;20027;-87
2020/12/19 10:52:25;;;;;;;17.73;11.35;;;;;;;10.94;70.49;99591.88;6189492;23;20021;-87
2020/12/19 10:54:51;;;;;;;15.05;10.93;;;;;;;11.00;70.69;99593.28;6215872;23;20048;-87
2020/12/19 10:57:17;;;;;;;17.35;11.50;;;;;;;11.03;70.75;99600.16;6215865;23;20343;-87
2020/12/19 10:59:43;;;;;;;15.90;11.20;;;;;;;11.07;70.66;99602.47;6189339;23;20482;-87
2020/12/19 11:02:10;;;;;;;17.08;10.98;;;;;;;11.15;70.68;99611.72;6189529;23;20025;-86
2020/12/19 11:04:36;;;;;;;17.52;11.30;;;;;;;11.20;70.52;99593.81;6189673;23;20379;-87
2020/12/19 11:07:02;;;;;;;17.00;11.15;;;;;;;11.28;70.70;99593.34;6189186;23;20024;-86
2020/12/19 11:09:29;;;;;;;14.25;10.60;;;;;;;11.35;71.07;99592.03;6215569;23;20024;-86
2020/12/19 11:11:55;;;;;;;17.35;11.95;;;;;;;11.44;71.08;99586.16;6189672;23;20028;-87
2020/12/19 11:14:23;;;;;;;17.52;11.45;;;;;;;11.60;71.68;99591.28;6189427;23;20349;-86
2020/12/19 11:16:49;;;;;;;18.67;11.18;;;;;;;11.82;73.10;99589.91;6215325;23;20017;-86
2020/12/19 11:19:15;;;;;;;15.68;11.35;;;;;;;12.11;74.63;99581.06;6190073;23;20075;-86
2020/12/19 11:21:45;;;;;;;16.38;11.20;;;;;;;12.49;73.89;99571.53;6189612;23;20031;-86
2020/12/19 11:24:13;;;;;;;14.82;10.90;;;;;;;12.99;75.83;99568.13;6215285;23;20519;-86
2020/12/19 11:26:41;;;;;;;13.40;10.55;;;;;;;13.52;75.35;99569.72;6215530;23;20020;-87
2020/12/19 11:29:09;;;;;;;12.88;9.90;;;;;;;14.09;74.33;99564.69;6215507;23;20096;-87
2020/12/19 11:31:36;;;;;;;10.88;9.45;;;;;;;14.68;73.66;99554.94;6215797;23;20021;-87
2020/12/19 11:34:03;;;;;;;11.07;9.57;;;;;;;15.27;71.89;99564.59;6215520;23;20020;-87
2020/12/19 11:36:29;;;;;;;14.13;9.35;;;;;;;15.81;70.85;99554.91;6215754;23;20044;-87
2020/12/19 11:38:55;;;;;;;11.23;8.68;;;;;;;16.33;69.86;99556.06;6189750;23;20024;-87